Time;durP1;ratioP1;P1;durP2;ratioP2;P2;SDS_P1;SDS_P2;PMS_P1;PMS_P2;Temp;Humidity;BMP_temperature;BMP_pressure;BME280_temperature;BME280_humidity;BME280_pressure;Samples;Min_cycle;Max_cycle;Signal;HPM_P1;HPM_P2
2020/12/15 00:02:02;;;;;;;33.42;19.00;;;;;;;3.68;72.21;101694.88;5111235;28;20388;-63
2020/12/15 00:04:28;;;;;;;25.40;18.17;;;;;;;3.68;72.20;101688.81;5112199;28;20044;-64
2020/12/15 00:06:54;;;;;;;26.90;18.88;;;;;;;3.65;72.20;101689.72;5111888;28;20035;-64
2020/12/15 00:09:21;;;;;;;24.08;18.83;;;;;;;3.65;72.36;101691.47;5112458;28;20046;-63
2020/12/15 00:11:47;;;;;;;26.13;19.80;;;;;;;3.65;72.36;101684.53;5113297;27;20043;-63
2020/12/15 00:14:13;;;;;;;23.27;19.83;;;;;;;3.68;72.24;101675.84;5110737;28;20556;-64
2020/12/15 00:16:39;;;;;;;27.83;19.95;;;;;;;3.67;72.59;101680.19;5112221;28;20047;-64
2020/12/15 00:19:05;;;;;;;33.85;19.58;;;;;;;3.67;72.40;101679.31;5111639;28;20044;-63
2020/12/15 00:21:32;;;;;;;30.30;19.90;;;;;;;3.65;72.54;101671.53;5111799;28;20457;-64
2020/12/15 00:23:58;;;;;;;26.98;18.27;;;;;;;3.63;72.64;101678.50;5111798;28;20089;-64
2020/12/15 00:26:24;;;;;;;23.20;18.35;;;;;;;3.60;72.83;101681.13;5111926;28;20040;-64
2020/12/15 00:28:50;;;;;;;32.83;19.08;;;;;;;3.60;72.73;101687.16;5111829;28;20104;-64
2020/12/15 00:31:19;;;;;;;28.60;19.05;;;;;;;3.61;72.93;101685.44;5109222;28;20043;-63
2020/12/15 00:33:45;;;;;;;34.58;19.55;;;;;;;3.64;72.87;101684.53;5115577;28;20043;-63
2020/12/15 00:36:21;;;;;;;34.05;20.27;;;;;;;3.62;72.79;101691.47;5115880;28;20051;-63
2020/12/15 00:38:48;;;;;;;;;;;;;;;3.59;73.20;101679.41;5111110;27;20043;-63
2020/12/15 00:41:14;;;;;;;22.80;17.30;;;;;;;3.62;73.04;101689.75;5114780;28;20683;-63
2020/12/15 00:43:40;;;;;;;24.73;18.20;;;;;;;3.61;73.23;101688.03;5106110;28;20495;-63
2020/12/15 00:46:07;;;;;;;26.10;18.45;;;;;;;3.59;73.24;101682.88;5116148;28;20065;-63
2020/12/15 00:48:33;;;;;;;31.00;19.08;;;;;;;3.59;73.34;101671.63;5115982;28;20047;-63
2020/12/15 00:50:59;;;;;;;34.22;18.45;;;;;;;3.61;73.39;101677.66;5116100;27;20051;-63
2020/12/15 00:53:25;;;;;;;26.27;19.30;;;;;;;3.63;73.45;101673.31;5116296;28;20047;-64
2020/12/15 00:55:51;;;;;;;26.55;18.58;;;;;;;3.65;73.31;101668.94;5116109;28;20142;-63
2020/12/15 00:58:17;;;;;;;25.83;19.25;;;;;;;3.64;73.43;101667.22;5109861;27;20485;-63
2020/12/15 01:00:44;;;;;;;30.17;19.25;;;;;;;3.65;73.68;101674.13;5115703;28;20108;-63
2020/12/15 01:03:10;;;;;;;28.13;18.80;;;;;;;3.68;73.75;101671.53;5115474;28;20048;-63
2020/12/15 01:05:36;;;;;;;32.25;20.38;;;;;;;3.68;73.47;101676.72;5115839;28;20085;-63
2020/12/15 01:08:03;;;;;;;27.35;19.92;;;;;;;3.70;73.83;101677.53;5115989;27;20075;-63
2020/12/15 01:10:29;;;;;;;29.23;19.75;;;;;;;3.71;73.72;101671.47;5125985;27;20044;-63
2020/12/15 01:12:56;;;;;;;24.45;19.33;;;;;;;3.71;73.99;101676.66;5136142;27;20046;-63
2020/12/15 01:15:22;;;;;;;24.35;19.77;;;;;;;3.69;73.82;101675.81;5136443;27;20092;-63
2020/12/15 01:17:48;;;;;;;24.85;18.42;;;;;;;3.70;73.95;101676.69;5135838;27;20043;-64
2020/12/15 01:20:15;;;;;;;23.52;19.58;;;;;;;3.71;73.88;101674.06;5136127;27;20118;-63
2020/12/15 01:22:41;;;;;;;28.02;20.58;;;;;;;3.73;73.91;101676.63;5136409;27;20051;-63
2020/12/15 01:25:08;;;;;;;24.13;18.88;;;;;;;3.74;73.87;101679.19;5136007;27;20118;-63
2020/12/15 01:27:34;;;;;;;28.95;20.80;;;;;;;3.75;73.72;101682.69;5135949;27;20083;-63
2020/12/15 01:30:00;;;;;;;27.08;18.95;;;;;;;3.73;74.07;101681.81;5135755;27;20047;-63
2020/12/15 01:32:26;;;;;;;25.27;20.80;;;;;;;3.70;73.95;101676.69;5136059;27;20098;-63
2020/12/15 01:34:52;;;;;;;24.25;18.67;;;;;;;3.68;74.18;101673.25;5135612;27;20043;-63
2020/12/15 01:37:18;;;;;;;27.83;20.67;;;;;;;3.67;74.16;101676.72;5135987;27;20067;-63
2020/12/15 01:39:44;;;;;;;24.13;20.00;;;;;;;3.67;74.35;101672.41;5135959;27;20076;-63
2020/12/15 01:42:10;;;;;;;24.45;19.92;;;;;;;3.65;74.55;101674.13;5125783;27;20453;-63
2020/12/15 01:44:37;;;;;;;26.95;21.35;;;;;;;3.65;74.59;101657.72;5105917;28;20040;-63
2020/12/15 01:47:06;;;;;;;26.05;20.15;;;;;;;3.69;74.40;101664.59;5132911;27;20040;-63
2020/12/15 01:49:33;;;;;;;27.15;20.10;;;;;;;3.71;74.47;101665.44;5135577;27;20082;-64
2020/12/15 01:51:59;;;;;;;29.90;20.65;;;;;;;3.74;74.38;101667.97;5135326;27;20088;-63
2020/12/15 01:54:25;;;;;;;27.15;19.25;;;;;;;3.73;74.30;101664.53;5135718;27;20050;-63
2020/12/15 01:56:54;;;;;;;24.55;20.67;;;;;;;3.74;74.32;101663.63;5135622;27;20047;-63
2020/12/15 01:59:22;;;;;;;25.77;19.80;;;;;;;3.79;74.44;101667.94;5135455;27;20047;-63
2020/12/15 02:01:48;;;;;;;26.35;19.58;;;;;;;3.77;74.50;101667.91;5135444;27;20043;-63
2020/12/15 02:04:14;;;;;;;24.63;19.90;;;;;;;3.77;74.44;101673.09;5134835;27;20046;-63
2020/12/15 02:06:46;;;;;;;24.25;19.10;;;;;;;3.77;74.28;101680.91;5135429;27;20058;-64
2020/12/15 02:09:13;;;;;;;24.38;19.88;;;;;;;3.76;74.28;101687.84;5134905;27;20445;-63
2020/12/15 02:11:43;;;;;;;25.30;19.83;;;;;;;3.76;74.38;101681.81;5134997;27;20485;-63
2020/12/15 02:14:10;;;;;;;26.80;19.58;;;;;;;3.78;74.64;101679.19;5135041;27;20039;-63
2020/12/15 02:16:39;;;;;;;26.05;20.48;;;;;;;3.79;74.47;101680.91;5135063;27;20086;-63
2020/12/15 02:19:07;;;;;;;23.77;19.88;;;;;;;3.81;74.41;101682.59;5134888;27;20119;-62
2020/12/15 02:22:00;;;;;;;25.20;20.60;;;;;;;3.82;74.23;101689.50;5134950;27;20506;-63
2020/12/15 02:24:26;;;;;;;23.80;19.92;;;;;;;3.82;74.19;101691.25;5135024;27;20039;-63
2020/12/15 02:26:54;;;;;;;25.83;19.95;;;;;;;3.82;74.41;101684.31;5134609;27;20096;-63
2020/12/15 02:29:20;;;;;;;24.52;20.10;;;;;;;3.84;74.28;101687.75;5134890;27;20055;-63
2020/12/15 02:31:46;;;;;;;27.77;20.02;;;;;;;3.86;74.47;101691.19;5134602;27;20042;-63
2020/12/15 02:34:13;;;;;;;24.77;20.05;;;;;;;3.85;74.26;101691.22;5134517;27;20096;-63
2020/12/15 02:36:41;;;;;;;24.95;21.13;;;;;;;3.88;74.38;101698.94;5134758;27;20091;-63
2020/12/15 02:39:16;;;;;;;25.17;20.98;;;;;;;3.85;74.22;101689.47;5134713;27;20047;-63
2020/12/15 02:41:57;;;;;;;24.95;20.70;;;;;;;3.87;74.32;101684.25;5133904;27;20043;-63
2020/12/15 02:44:23;;;;;;;25.50;20.92;;;;;;;3.87;74.34;101679.94;5134429;27;20043;-63
2020/12/15 02:46:49;;;;;;;25.77;21.17;;;;;;;3.89;74.55;101685.09;5134354;27;20051;-63
2020/12/15 02:49:16;;;;;;;24.02;20.75;;;;;;;3.90;74.39;101697.19;5134415;27;20055;-63
2020/12/15 02:51:47;;;;;;;27.88;20.40;;;;;;;3.88;74.49;101692.00;5134389;27;20399;-63
2020/12/15 02:54:13;;;;;;;25.35;21.23;;;;;;;3.88;74.51;101691.16;5105618;27;20050;-63
2020/12/15 02:56:39;;;;;;;27.05;21.15;;;;;;;3.89;74.48;101693.72;5134153;27;20096;-63
2020/12/15 02:59:05;;;;;;;25.25;21.88;;;;;;;3.90;74.53;101689.41;5134035;27;20092;-63
2020/12/15 03:01:31;;;;;;;26.15;21.23;;;;;;;3.91;74.52;101685.91;5134180;27;20047;-63
2020/12/15 03:03:57;;;;;;;25.38;21.20;;;;;;;3.93;74.36;101679.81;5133863;27;20075;-63
2020/12/15 03:06:23;;;;;;;26.75;22.55;;;;;;;3.93;74.47;101671.19;5134037;27;20047;-63
2020/12/15 03:08:50;;;;;;;25.92;21.73;;;;;;;3.95;74.56;101673.75;5133834;27;20080;-63
2020/12/15 03:11:21;;;;;;;26.52;21.17;;;;;;;3.97;74.76;101669.41;5133943;27;20047;-63
2020/12/15 03:13:47;;;;;;;24.95;20.52;;;;;;;3.97;74.70;101661.63;5134006;27;20039;-63
2020/12/15 03:16:13;;;;;;;24.02;20.70;;;;;;;3.98;74.55;101673.72;5132539;27;20050;-63
2020/12/15 03:18:39;;;;;;;23.83;20.27;;;;;;;3.98;74.52;101664.19;5120652;27;20118;-63
2020/12/15 03:21:08;;;;;;;22.40;20.00;;;;;;;4.00;74.67;101671.94;5133835;27;20043;-62
2020/12/15 03:23:35;;;;;;;25.67;21.40;;;;;;;4.02;74.52;101672.78;5133741;27;20035;-62
2020/12/15 03:26:01;;;;;;;23.90;20.65;;;;;;;4.01;74.59;101669.34;5133652;27;20051;-63
2020/12/15 03:28:28;;;;;;;23.27;19.98;;;;;;;4.02;74.61;101673.63;5133561;27;20047;-62
2020/12/15 03:30:54;;;;;;;23.33;20.23;;;;;;;4.01;74.78;101664.16;5133626;27;20088;-62
2020/12/15 03:33:21;;;;;;;26.55;21.33;;;;;;;4.02;74.57;101673.63;5133430;27;20043;-63
2020/12/15 03:35:47;;;;;;;23.35;20.13;;;;;;;4.02;74.66;101678.84;5133591;27;20035;-63
2020/12/15 03:38:13;;;;;;;27.40;22.00;;;;;;;4.02;74.69;101660.66;5133439;27;20099;-63
2020/12/15 03:40:39;;;;;;;27.65;22.08;;;;;;;4.04;74.57;101673.63;5133524;27;20035;-62
2020/12/15 03:43:06;;;;;;;25.00;21.95;;;;;;;4.05;74.79;101667.53;5133294;27;20499;-64
2020/12/15 03:45:32;;;;;;;29.50;21.35;;;;;;;4.04;74.78;101651.09;5133422;27;20047;-62
2020/12/15 03:47:58;;;;;;;25.70;21.13;;;;;;;4.05;74.70;101650.25;5133182;27;20494;-62
2020/12/15 03:50:25;;;;;;;25.83;22.05;;;;;;;4.06;74.81;101653.69;5133647;27;20070;-63
2020/12/15 03:52:51;;;;;;;28.73;22.42;;;;;;;4.06;74.96;101654.56;5133614;27;20409;-64
2020/12/15 03:55:24;;;;;;;25.10;21.60;;;;;;;4.07;74.79;101663.19;5133537;27;20043;-65
2020/12/15 03:57:51;;;;;;;26.42;22.08;;;;;;;4.08;74.77;101663.16;5132291;27;20405;-62
2020/12/15 04:00:18;;;;;;;26.65;21.13;;;;;;;4.08;74.81;101650.19;5133261;27;20059;-63
2020/12/15 04:02:45;;;;;;;27.90;21.77;;;;;;;4.09;74.73;101643.25;5123216;27;20070;-63
2020/12/15 04:05:11;;;;;;;25.90;20.90;;;;;;;4.09;74.67;101641.50;5121878;28;20039;-63
2020/12/15 04:07:40;;;;;;;31.20;23.25;;;;;;;4.10;74.87;101639.75;5129150;27;20047;-63
2020/12/15 04:10:06;;;;;;;29.25;23.23;;;;;;;4.12;74.86;101647.56;5129757;27;20047;-63
2020/12/15 04:12:47;;;;;;;28.00;22.17;;;;;;;4.12;75.13;101648.41;5129658;27;20043;-63
2020/12/15 04:15:13;;;;;;;26.42;21.80;;;;;;;4.13;74.75;101659.66;5129687;28;20043;-64
2020/12/15 04:17:39;;;;;;;27.52;22.27;;;;;;;4.11;74.87;101659.66;5129654;27;20043;-64
2020/12/15 04:20:06;;;;;;;29.05;22.17;;;;;;;4.09;75.10;101645.84;5129474;28;20044;-63
2020/12/15 04:22:33;;;;;;;27.80;22.48;;;;;;;4.07;75.10;101643.25;5129667;27;20043;-63
2020/12/15 04:25:00;;;;;;;27.27;23.30;;;;;;;4.07;75.32;101639.81;5129416;27;20478;-63
2020/12/15 04:27:27;;;;;;;23.70;20.08;;;;;;;4.07;75.28;101665.78;5129833;27;20083;-63
2020/12/15 04:29:53;;;;;;;25.67;20.00;;;;;;;4.03;75.12;101677.97;5129488;27;20096;-63
2020/12/15 04:32:19;;;;;;;24.98;21.23;;;;;;;4.02;75.42;101652.00;5129605;27;20046;-63
2020/12/15 04:34:45;;;;;;;26.35;22.75;;;;;;;4.04;75.72;101639.88;5129681;28;20108;-63
2020/12/15 04:37:12;;;;;;;25.05;21.40;;;;;;;4.06;75.56;101638.97;5129419;27;20050;-63
2020/12/15 04:39:38;;;;;;;23.38;20.70;;;;;;;4.09;75.81;101643.25;5129539;27;20059;-63
2020/12/15 04:42:04;;;;;;;26.15;21.35;;;;;;;4.09;75.75;101675.28;5145018;27;20544;-64
2020/12/15 04:44:33;;;;;;;25.15;21.50;;;;;;;4.08;75.65;101683.94;5129631;27;20048;-65
2020/12/15 04:47:35;;;;;;;27.17;21.48;;;;;;;4.08;75.77;101646.72;5129494;27;20050;-64
2020/12/15 04:50:06;;;;;;;25.88;20.80;;;;;;;4.09;75.88;101649.31;5129302;27;20495;-63
2020/12/15 04:52:51;;;;;;;23.02;20.52;;;;;;;4.09;75.66;101670.06;5129419;27;20453;-64
2020/12/15 04:55:19;;;;;;;24.80;21.27;;;;;;;4.11;75.94;101662.25;5129111;27;20046;-63
2020/12/15 04:57:46;;;;;;;22.55;19.95;;;;;;;4.13;75.86;101659.66;5129353;27;20415;-63
2020/12/15 05:00:13;;;;;;;24.10;20.98;;;;;;;4.14;76.01;101633.66;5129397;27;20641;-64
2020/12/15 05:02:41;;;;;;;24.38;21.25;;;;;;;4.16;75.88;101633.63;5128853;27;20039;-63
2020/12/15 05:05:11;;;;;;;22.25;19.45;;;;;;;4.17;75.87;101641.38;5129446;27;20453;-63
2020/12/15 05:07:45;;;;;;;23.27;20.17;;;;;;;4.19;75.73;101623.16;5129324;27;20039;-64
2020/12/15 05:10:16;;;;;;;23.92;20.55;;;;;;;4.19;76.11;101626.66;5129401;27;20062;-64
2020/12/15 05:12:43;;;;;;;24.10;20.80;;;;;;;4.20;75.86;101638.75;5129205;27;20043;-64
2020/12/15 05:15:16;;;;;;;23.00;20.10;;;;;;;4.21;75.80;101648.25;5129322;27;20047;-63
2020/12/15 05:17:43;;;;;;;23.95;19.88;;;;;;;4.22;75.68;101652.56;5129035;27;20486;-64
2020/12/15 05:20:14;;;;;;;25.80;20.65;;;;;;;4.22;75.77;101667.31;5131229;27;20456;-63
2020/12/15 05:22:47;;;;;;;24.13;20.98;;;;;;;4.20;75.87;101685.53;5132903;27;20491;-64
2020/12/15 05:25:24;;;;;;;25.98;21.27;;;;;;;4.21;75.77;101701.97;5132534;27;20088;-64
2020/12/15 05:27:50;;;;;;;26.38;21.30;;;;;;;4.17;75.78;101701.13;5132693;27;20392;-64
2020/12/15 05:30:16;;;;;;;24.92;20.48;;;;;;;4.18;75.97;101697.66;5132294;27;20039;-64
2020/12/15 05:32:53;;;;;;;28.23;21.98;;;;;;;4.13;76.10;101693.44;5132466;27;20132;-64
2020/12/15 05:35:28;;;;;;;25.10;22.00;;;;;;;4.08;76.15;101680.50;5132598;27;20157;-64
2020/12/15 05:37:56;;;;;;;25.67;21.95;;;;;;;4.08;76.38;101677.91;5132473;27;20105;-62
2020/12/15 05:40:22;;;;;;;24.58;21.98;;;;;;;4.12;76.28;101660.53;5132630;27;20047;-62
2020/12/15 05:42:57;;;;;;;25.60;21.70;;;;;;;4.15;76.33;101660.47;5131968;27;20120;-62
2020/12/15 05:45:24;;;;;;;28.10;22.35;;;;;;;4.17;76.29;101662.16;5132343;27;20050;-62
2020/12/15 05:47:59;;;;;;;26.55;21.38;;;;;;;4.19;76.06;101649.16;5132225;27;20479;-62
2020/12/15 05:50:25;;;;;;;26.63;22.17;;;;;;;4.21;76.35;101650.84;5130469;27;20047;-62
2020/12/15 05:52:59;;;;;;;26.08;21.80;;;;;;;4.23;76.14;101650.84;5111756;28;20515;-64
2020/12/15 05:55:26;;;;;;;27.70;22.25;;;;;;;4.24;76.20;101662.94;5111883;28;20139;-63
2020/12/15 05:57:53;;;;;;;25.52;21.35;;;;;;;4.24;75.90;101682.00;5111684;28;20051;-64
2020/12/15 06:00:24;;;;;;;29.27;22.83;;;;;;;4.24;76.22;101679.38;5111321;28;20113;-63
2020/12/15 06:02:58;;;;;;;26.08;20.90;;;;;;;4.24;76.35;101679.38;5104943;28;20043;-62
2020/12/15 06:05:27;;;;;;;25.83;20.70;;;;;;;4.25;76.32;101685.44;5111045;28;20833;-62
2020/12/15 06:07:55;;;;;;;25.95;20.98;;;;;;;4.22;76.23;101693.28;5112793;28;20071;-63
2020/12/15 06:10:24;;;;;;;25.13;21.85;;;;;;;4.22;76.28;101668.16;5120499;27;20043;-63
2020/12/15 06:12:51;;;;;;;27.13;21.77;;;;;;;4.24;76.53;101662.94;5131605;27;20047;-63
2020/12/15 06:15:18;;;;;;;24.92;21.55;;;;;;;4.27;76.60;101659.41;5132033;27;20103;-63
2020/12/15 06:17:49;;;;;;;26.05;20.70;;;;;;;4.28;76.64;101669.81;5131573;27;20051;-63
2020/12/15 06:20:19;;;;;;;29.48;22.48;;;;;;;4.28;76.50;101676.72;5131498;27;20380;-63
2020/12/15 06:22:47;;;;;;;24.50;21.63;;;;;;;4.30;76.83;101667.19;5131800;27;20039;-63
2020/12/15 06:25:28;;;;;;;24.52;20.42;;;;;;;4.33;76.59;101662.81;5131280;27;20084;-63
2020/12/15 06:28:01;;;;;;;26.48;21.92;;;;;;;4.35;76.52;101644.59;5131126;27;20043;-63
2020/12/15 06:30:35;;;;;;;27.42;21.17;;;;;;;4.36;76.81;101649.75;5103290;27;20380;-63
2020/12/15 06:33:16;;;;;;;29.43;22.97;;;;;;;4.38;76.68;101650.59;5131297;27;20092;-64
2020/12/15 06:35:47;;;;;;;25.55;22.25;;;;;;;4.39;76.68;101657.50;5105927;27;20047;-64
2020/12/15 06:38:20;;;;;;;27.83;23.52;;;;;;;4.41;76.80;101655.72;5130748;27;20058;-63
2020/12/15 06:40:49;;;;;;;29.23;23.98;;;;;;;4.43;76.74;101647.06;5131454;27;20054;-64
2020/12/15 06:43:29;;;;;;;27.35;23.80;;;;;;;4.45;76.77;101656.53;5130947;27;20418;-64
2020/12/15 06:46:07;;;;;;;31.13;23.48;;;;;;;4.46;76.82;101658.25;5105247;27;20043;-64
2020/12/15 06:48:37;;;;;;;30.35;24.25;;;;;;;4.47;76.87;101630.53;5130979;27;20054;-61
2020/12/15 06:51:04;;;;;;;35.97;27.67;;;;;;;4.49;76.87;101627.00;5131454;27;20082;-62
2020/12/15 06:53:30;;;;;;;33.70;25.75;;;;;;;4.51;76.64;101663.41;5108569;27;20052;-62
2020/12/15 06:56:01;;;;;;;33.35;24.95;;;;;;;4.50;76.83;101665.13;5130835;27;20051;-62
2020/12/15 06:58:27;;;;;;;31.65;24.92;;;;;;;4.52;76.93;101665.09;5130839;27;20089;-62
2020/12/15 07:00:54;;;;;;;30.35;24.30;;;;;;;4.53;77.01;101675.47;5129436;27;20517;-62
2020/12/15 07:03:35;;;;;;;30.52;24.38;;;;;;;4.51;77.33;101692.84;5107630;27;20040;-63
2020/12/15 07:06:19;;;;;;;30.05;23.67;;;;;;;4.51;77.35;101692.00;5109126;28;20052;-63
2020/12/15 07:08:56;;;;;;;32.92;24.75;;;;;;;4.53;77.20;101706.69;5109682;28;20563;-62
2020/12/15 07:11:27;;;;;;;31.13;22.80;;;;;;;4.52;77.20;101723.16;5124172;27;20476;-64
2020/12/15 07:14:01;;;;;;;27.50;21.90;;;;;;;4.49;77.46;101740.53;5111510;27;20081;-63
2020/12/15 07:16:28;;;;;;;29.00;22.42;;;;;;;4.46;77.62;101746.63;5109254;28;20044;-64
2020/12/15 07:18:54;;;;;;;25.25;21.50;;;;;;;4.44;77.67;101739.75;5108823;28;20072;-63
2020/12/15 07:21:23;;;;;;;26.33;22.95;;;;;;;4.44;77.69;101747.53;5109278;28;20043;-63
2020/12/15 07:23:52;;;;;;;28.20;22.83;;;;;;;4.44;77.91;101744.94;5109328;28;20442;-64
2020/12/15 07:26:19;;;;;;;27.83;22.27;;;;;;;4.45;77.94;101741.47;5109347;28;20043;-62
2020/12/15 07:28:47;;;;;;;27.88;23.13;;;;;;;4.46;78.02;101741.44;5106778;28;20047;-63
2020/12/15 07:31:25;;;;;;;33.28;23.38;;;;;;;4.48;78.02;101736.19;5109658;28;20083;-66
2020/12/15 07:34:11;;;;;;;27.88;23.20;;;;;;;4.50;78.15;101731.84;5098952;28;20051;-62
2020/12/15 07:36:39;;;;;;;29.42;23.20;;;;;;;4.54;77.90;101733.50;5109056;28;20096;-65
2020/12/15 07:39:06;;;;;;;27.48;22.83;;;;;;;4.55;78.12;101730.88;5107103;28;20544;-65
2020/12/15 07:41:36;;;;;;;33.03;24.35;;;;;;;4.57;77.94;101726.53;5108730;28;20059;-67
2020/12/15 07:44:18;;;;;;;30.63;23.58;;;;;;;4.60;78.03;101723.03;5106857;28;20043;-64
2020/12/15 07:46:48;;;;;;;30.48;24.05;;;;;;;4.61;78.04;101714.34;5109129;28;20048;-62
2020/12/15 07:49:14;;;;;;;33.25;24.88;;;;;;;4.65;78.06;101707.38;5109064;28;20054;-63
2020/12/15 07:51:42;;;;;;;32.58;25.17;;;;;;;4.68;77.97;101700.34;5109181;28;20445;-63
2020/12/15 07:54:08;;;;;;;32.35;25.20;;;;;;;4.69;78.07;101712.47;5108535;28;20100;-62
2020/12/15 07:56:34;;;;;;;35.85;25.83;;;;;;;4.70;78.01;101714.19;5109245;28;20040;-65
2020/12/15 07:59:01;;;;;;;29.73;23.90;;;;;;;4.72;77.92;101721.97;5109010;28;20076;-63
2020/12/15 08:01:29;;;;;;;31.60;24.05;;;;;;;4.74;78.05;101722.81;5109188;28;20459;-63
2020/12/15 08:03:59;;;;;;;31.98;24.58;;;;;;;4.77;78.11;101722.75;5107995;28;20047;-63
2020/12/15 08:06:28;;;;;;;31.83;24.48;;;;;;;4.78;77.92;101732.25;5104162;28;20756;-64
2020/12/15 08:08:55;;;;;;;34.67;25.73;;;;;;;4.82;78.12;101728.72;5108927;28;20047;-62
2020/12/15 08:11:21;;;;;;;31.55;25.90;;;;;;;4.85;78.04;101720.88;5107629;28;20077;-67
2020/12/15 08:13:47;;;;;;;31.80;25.10;;;;;;;4.87;78.21;101716.50;5097774;28;20116;-64
2020/12/15 08:16:15;;;;;;;32.38;25.00;;;;;;;4.89;78.17;101719.94;5108986;28;20047;-65
2020/12/15 08:18:43;;;;;;;33.17;25.27;;;;;;;4.91;78.02;101722.50;5108745;28;20062;-63
2020/12/15 08:21:17;;;;;;;30.83;24.05;;;;;;;4.93;78.24;101723.34;5099592;28;20055;-64
2020/12/15 08:23:47;;;;;;;32.22;25.70;;;;;;;4.95;78.30;101734.59;5102425;28;20118;-64
2020/12/15 08:26:17;;;;;;;38.60;26.20;;;;;;;4.95;78.12;101739.81;5102256;28;20108;-64
2020/12/15 08:28:47;;;;;;;35.28;27.33;;;;;;;4.97;78.42;101739.78;5108159;28;20093;-65
2020/12/15 08:31:13;;;;;;;35.65;26.85;;;;;;;4.99;78.33;101732.78;5108353;28;20100;-63
2020/12/15 08:33:40;;;;;;;34.35;26.40;;;;;;;5.01;78.41;101739.66;5107897;28;20127;-63
2020/12/15 08:36:11;;;;;;;35.47;26.38;;;;;;;5.04;78.49;101751.75;5101017;28;21321;-64
2020/12/15 08:38:43;;;;;;;33.22;27.05;;;;;;;5.07;78.46;101754.31;5110812;28;20043;-61
2020/12/15 08:41:14;;;;;;;32.60;26.02;;;;;;;5.11;78.71;101739.53;5107661;28;20051;-61
2020/12/15 08:43:41;;;;;;;36.13;26.33;;;;;;;5.15;78.48;101738.56;5108294;28;20088;-62
2020/12/15 08:46:14;;;;;;;33.20;26.45;;;;;;;5.21;78.59;101746.28;5105965;28;20052;-62
2020/12/15 08:48:41;;;;;;;29.35;25.25;;;;;;;5.25;78.45;101741.88;5095501;28;20135;-62
2020/12/15 08:51:12;;;;;;;32.40;26.00;;;;;;;5.28;78.85;101750.50;5104621;28;20047;-62
2020/12/15 08:53:39;;;;;;;37.00;27.23;;;;;;;5.30;78.40;101763.47;5110189;28;20036;-61
2020/12/15 08:56:14;;;;;;;36.83;27.48;;;;;;;5.26;78.70;101777.41;5101400;28;20054;-77
2020/12/15 08:58:41;;;;;;;35.57;27.17;;;;;;;5.23;78.89;101779.19;5106256;27;20049;-72
2020/12/15 09:01:07;;;;;;;37.00;28.48;;;;;;;5.20;78.88;101771.41;5107610;28;20462;-77
2020/12/15 09:03:43;;;;;;;36.15;27.60;;;;;;;5.17;78.84;101768.88;5098744;28;20064;-70
2020/12/15 09:06:09;;;;;;;35.10;26.42;;;;;;;5.18;79.26;101775.81;5112196;28;20077;-76
2020/12/15 09:08:46;;;;;;;33.63;27.17;;;;;;;5.19;79.27;101768.84;5111897;28;20070;-75
2020/12/15 09:11:14;;;;;;;33.13;25.83;;;;;;;5.20;79.18;101760.16;5113886;27;20213;-76
2020/12/15 09:13:57;;;;;;;33.80;25.90;;;;;;;5.25;79.41;101757.50;5111588;28;20085;-72
2020/12/15 09:18:04;;;;;;;34.67;26.65;;;;;;;5.30;79.22;101756.50;5084983;27;20923;-72
2020/12/15 09:20:30;;;;;;;31.98;26.13;;;;;;;5.33;79.35;101759.06;5078341;28;20072;-66
2020/12/15 09:22:57;;;;;;;31.38;25.77;;;;;;;5.37;79.31;101749.44;5068450;28;20102;-76
2020/12/15 09:25:24;;;;;;;31.67;26.45;;;;;;;5.39;79.18;101742.47;5070186;28;20098;-71
2020/12/15 09:27:50;;;;;;;31.48;26.15;;;;;;;5.42;79.10;101745.00;5067045;28;20044;-65
2020/12/15 09:30:20;;;;;;;29.92;25.45;;;;;;;5.45;79.12;101738.91;5085861;28;20040;-69
2020/12/15 09:32:47;;;;;;;32.30;26.15;;;;;;;5.47;79.15;101744.94;5086437;28;20044;-65
2020/12/15 09:35:13;;;;;;;32.20;26.27;;;;;;;5.47;79.32;101742.31;5086464;28;20048;-70
2020/12/15 09:37:40;;;;;;;34.33;26.60;;;;;;;5.51;79.12;101749.19;5080562;28;20048;-69
2020/12/15 09:40:08;;;;;;;36.10;27.17;;;;;;;5.54;79.11;101738.72;5084845;28;20040;-70
2020/12/15 09:42:36;;;;;;;31.88;26.58;;;;;;;5.58;79.05;101748.19;5066391;28;20037;-73
2020/12/15 09:45:05;;;;;;;31.17;27.38;;;;;;;5.64;78.89;101747.22;5067871;28;20049;-72
2020/12/15 09:47:32;;;;;;;35.85;27.85;;;;;;;5.67;78.92;101747.16;5080299;28;20045;-70
2020/12/15 09:50:01;;;;;;;33.45;27.10;;;;;;;5.68;79.12;101752.31;5067015;28;20052;-68
2020/12/15 09:52:28;;;;;;;35.33;28.27;;;;;;;5.71;78.95;101762.69;5074585;28;20041;-73
2020/12/15 09:54:55;;;;;;;41.97;33.25;;;;;;;5.73;79.07;101758.28;5076564;28;20510;-74
2020/12/15 09:57:21;;;;;;;83.30;53.05;;;;;;;5.75;79.15;101762.63;5085242;28;20537;-71
2020/12/15 09:59:47;;;;;;;104.18;62.63;;;;;;;5.74;79.29;101756.56;5085451;28;20044;-65
2020/12/15 10:02:14;;;;;;;51.38;36.47;;;;;;;5.72;79.47;101764.38;5084860;28;20044;-72
2020/12/15 10:04:41;;;;;;;45.72;35.05;;;;;;;5.69;79.55;101759.25;5084590;28;20040;-75
2020/12/15 10:07:07;;;;;;;42.33;30.23;;;;;;;5.69;79.56;101753.19;5084790;28;20040;-69
2020/12/15 10:09:33;;;;;;;48.65;39.35;;;;;;;5.72;79.77;101750.50;5085165;28;20048;-75
2020/12/15 10:12:05;;;;;;;51.08;37.45;;;;;;;5.73;79.64;101745.28;5085288;28;20076;-72
2020/12/15 10:14:34;;;;;;;38.88;29.73;;;;;;;5.77;79.70;101753.03;5085126;28;20066;-63
2020/12/15 10:17:01;;;;;;;46.33;33.53;;;;;;;5.77;79.67;101771.28;5084714;28;20109;-74
2020/12/15 10:19:28;;;;;;;73.07;49.60;;;;;;;5.78;79.60;101767.78;5085195;28;20044;-73
2020/12/15 10:21:58;;;;;;;53.78;37.78;;;;;;;5.80;79.85;101771.19;5084644;28;20044;-70
2020/12/15 10:24:24;;;;;;;393.65;196.65;;;;;;;5.82;79.68;101766.81;5084672;28;20048;-69
2020/12/15 10:26:52;;;;;;;87.00;52.30;;;;;;;5.90;79.95;101754.50;5085120;28;20044;-67
2020/12/15 10:29:21;;;;;;;41.08;30.80;;;;;;;5.99;79.70;101746.53;5062901;28;20098;-69
2020/12/15 10:31:48;;;;;;;39.58;30.02;;;;;;;6.07;79.54;101754.19;5063669;28;20036;-64
2020/12/15 10:34:17;;;;;;;37.40;29.50;;;;;;;6.14;79.49;101750.53;5066736;28;20044;-79
2020/12/15 10:36:46;;;;;;;35.20;27.73;;;;;;;6.19;79.48;101760.88;5056927;28;20041;-75
2020/12/15 10:39:13;;;;;;;41.33;30.55;;;;;;;6.22;79.31;101760.78;5059716;28;20052;-76
2020/12/15 10:41:41;;;;;;;35.38;28.58;;;;;;;6.27;78.90;101742.44;5052865;28;20045;-65
2020/12/15 10:44:14;;;;;;;64.05;43.47;;;;;;;6.33;78.81;101739.72;5061166;28;20102;-78
2020/12/15 10:46:45;;;;;;;63.75;43.95;;;;;;;6.34;79.19;101731.84;5061410;28;20044;-71
2020/12/15 10:49:16;;;;;;;40.17;27.92;;;;;;;6.36;78.91;101713.56;5067711;28;20409;-73
2020/12/15 10:51:47;;;;;;;41.05;29.08;;;;;;;6.36;78.92;101706.59;5053375;28;20048;-79
2020/12/15 10:54:16;;;;;;;44.28;31.90;;;;;;;6.37;78.91;101710.06;5064723;28;20183;-78
2020/12/15 10:56:43;;;;;;;29.13;24.33;;;;;;;6.38;78.92;101707.41;5059943;28;20056;-82
2020/12/15 10:59:09;;;;;;;30.42;24.85;;;;;;;6.37;78.98;101716.16;5065198;28;20040;-72
2020/12/15 11:01:35;;;;;;;38.08;28.80;;;;;;;6.36;78.66;101727.47;5069618;28;20048;-73
2020/12/15 11:04:02;;;;;;;40.53;31.55;;;;;;;6.37;78.52;101721.38;5057279;28;20460;-79
2020/12/15 11:06:31;;;;;;;44.17;32.90;;;;;;;6.38;78.72;101722.22;5070790;28;20136;-80
2020/12/15 11:09:00;;;;;;;33.45;28.20;;;;;;;6.38;78.64;101728.25;5054589;28;20044;-74
2020/12/15 11:11:27;;;;;;;51.67;40.25;;;;;;;6.44;78.70;101734.25;5070250;28;20114;-65
2020/12/15 11:13:53;;;;;;;40.45;30.15;;;;;;;6.49;78.80;101745.44;5060617;28;20060;-64
2020/12/15 11:16:23;;;;;;;51.67;39.50;;;;;;;6.49;78.74;101742.84;5066356;28;20060;-73
2020/12/15 11:18:50;;;;;;;40.38;30.10;;;;;;;6.47;78.85;101734.19;5069975;28;20056;-74
2020/12/15 11:21:17;;;;;;;46.00;32.10;;;;;;;6.47;78.93;101736.78;5069166;28;20044;-75
2020/12/15 11:23:44;;;;;;;71.22;47.45;;;;;;;6.45;79.29;101744.66;5069638;28;20048;-73
2020/12/15 11:26:15;;;;;;;35.42;28.05;;;;;;;6.44;79.06;101747.28;5069421;28;20075;-75